createdAt,value
2023-03-05T00:03:23.872Z,28.70
2023-03-05T00:07:27.906Z,30.37
2023-03-05T00:11:31.622Z,25.83
2023-03-05T00:15:34.430Z,26.30
2023-03-05T00:19:37.114Z,26.53
2023-03-05T00:23:41.744Z,27.17
2023-03-05T00:27:44.435Z,30.93
2023-03-05T00:31:47.234Z,30.83
2023-03-05T00:35:49.906Z,28.87
2023-03-05T00:39:53.942Z,30.83
2023-03-05T00:43:59.172Z,29.57
2023-03-05T00:48:02.584Z,30.20
2023-03-05T00:52:05.691Z,28.17
2023-03-05T00:56:09.707Z,32.13
2023-03-05T01:00:14.368Z,31.80
2023-03-05T01:04:17.024Z,31.90
2023-03-05T01:08:20.013Z,31.10
2023-03-05T01:12:24.540Z,31.47
2023-03-05T01:16:27.259Z,33.07
2023-03-05T01:20:30.043Z,31.27
2023-03-05T01:24:33.625Z,27.73
2023-03-05T01:28:38.574Z,31.07
2023-03-05T01:32:41.528Z,29.70
2023-03-05T01:36:44.201Z,28.47
2023-03-05T01:40:46.955Z,29.70
2023-03-05T01:45:07.097Z,28.17
2023-03-05T01:49:16.776Z,30.67
2023-03-05T01:53:19.482Z,30.70
2023-03-05T01:57:24.378Z,30.10
2023-03-05T02:01:28.818Z,29.10
2023-03-05T02:05:33.040Z,27.07
2023-03-05T02:09:38.985Z,26.00
2023-03-05T02:13:42.206Z,27.60
2023-03-05T02:17:53.451Z,27.87
2023-03-05T02:21:57.497Z,22.27
2023-03-05T02:26:00.929Z,26.70
2023-03-05T02:30:04.209Z,25.53
2023-03-05T02:34:07.215Z,26.50
2023-03-05T02:38:11.260Z,28.03
2023-03-05T02:42:13.926Z,23.90
2023-03-05T02:46:16.599Z,23.57
2023-03-05T02:50:19.609Z,21.60
2023-03-05T02:54:23.932Z,22.67
2023-03-05T02:58:26.559Z,24.23
2023-03-05T03:02:29.229Z,22.37
2023-03-05T03:06:31.898Z,24.40
2023-03-05T03:10:35.963Z,25.53
2023-03-05T03:14:42.404Z,22.57
2023-03-05T03:18:48.333Z,27.67
2023-03-05T03:22:51.033Z,26.53
2023-03-05T03:26:55.295Z,24.50
2023-03-05T03:30:57.963Z,30.97
2023-03-05T03:35:00.678Z,26.13
2023-03-05T03:39:03.661Z,29.07
2023-03-05T03:43:08.125Z,28.43
2023-03-05T03:47:10.798Z,29.83
2023-03-05T03:51:13.469Z,28.37
2023-03-05T03:55:16.168Z,32.03
2023-03-05T03:59:20.343Z,31.13
2023-03-05T04:03:22.966Z,29.00
2023-03-05T04:07:25.630Z,35.37
2023-03-05T04:11:29.495Z,33.23
2023-03-05T04:15:33.696Z,32.40
2023-03-05T04:19:36.333Z,31.63
2023-03-05T04:23:39.599Z,31.30
2023-03-05T04:27:42.273Z,33.03
2023-03-05T04:31:46.360Z,30.27
2023-03-05T04:35:49.215Z,31.90
2023-03-05T04:39:52.353Z,34.83
2023-03-05T04:43:55.017Z,35.80
2023-03-05T04:47:59.167Z,37.47
2023-03-05T04:52:01.856Z,32.40
2023-03-05T04:56:05.158Z,35.40
2023-03-05T05:00:14.015Z,32.07
2023-03-05T05:04:18.636Z,31.97
2023-03-05T05:08:21.259Z,34.27
2023-03-05T05:12:23.891Z,33.47
2023-03-05T05:16:26.546Z,32.10
2023-03-05T05:20:30.912Z,30.90
2023-03-05T05:24:33.646Z,32.60
2023-03-05T05:28:38.338Z,33.17
2023-03-05T05:32:41.459Z,31.47
2023-03-05T05:36:45.560Z,32.13
2023-03-05T05:40:48.184Z,31.10
2023-03-05T05:44:51.004Z,31.10
2023-03-05T05:48:55.122Z,32.77
2023-03-05T05:53:00.681Z,32.57
2023-03-05T05:57:03.388Z,31.97
2023-03-05T06:01:13.924Z,32.47
2023-03-05T06:05:16.813Z,32.77
2023-03-05T06:09:21.112Z,35.67
2023-03-05T06:13:23.753Z,34.17
2023-03-05T06:17:31.011Z,35.63
2023-03-05T06:21:34.309Z,37.60
2023-03-05T06:25:38.734Z,31.27
2023-03-05T06:29:41.678Z,33.43
2023-03-05T06:33:44.888Z,35.93
2023-03-05T06:37:47.548Z,33.67
2023-03-05T06:41:52.980Z,34.47
2023-03-05T06:46:03.205Z,31.67
2023-03-05T06:50:07.119Z,32.23
2023-03-05T06:54:12.069Z,33.67
2023-03-05T06:58:16.306Z,35.33
2023-03-05T07:02:19.345Z,36.00
2023-03-05T07:06:23.223Z,32.33
2023-03-05T07:10:25.874Z,31.83
2023-03-05T07:14:30.067Z,29.37
2023-03-05T07:18:32.782Z,31.57
2023-03-05T07:22:36.076Z,31.70
2023-03-05T07:26:38.740Z,32.13
2023-03-05T07:30:42.756Z,31.67
2023-03-05T07:34:45.696Z,31.70
2023-03-05T07:38:48.384Z,29.83
2023-03-05T07:42:51.092Z,29.70
2023-03-05T07:46:55.460Z,30.50
2023-03-05T07:51:02.686Z,26.30
2023-03-05T07:55:05.920Z,25.53
2023-03-05T07:59:12.295Z,18.57
2023-03-05T08:03:16.712Z,19.60
2023-03-05T08:07:20.001Z,15.57
2023-03-05T08:11:22.818Z,15.33
2023-03-05T08:15:26.010Z,12.10
2023-03-05T08:19:30.419Z,14.57
2023-03-05T08:23:34.538Z,16.03
2023-03-05T08:27:39.953Z,15.10
2023-03-05T08:31:46.386Z,11.80
2023-03-05T08:35:50.725Z,13.70
2023-03-05T08:39:56.206Z,11.73
2023-03-05T08:43:58.877Z,11.03
2023-03-05T08:48:01.573Z,10.60
2023-03-05T08:52:06.385Z,12.10
2023-03-05T08:56:09.898Z,13.70
2023-03-05T09:00:16.172Z,10.10
2023-03-05T09:04:19.091Z,9.40
2023-03-05T09:08:23.524Z,9.40
2023-03-05T09:12:26.472Z,8.77
2023-03-05T09:16:29.495Z,6.80
2023-03-05T09:20:33.236Z,4.83
2023-03-05T09:24:37.596Z,5.83
2023-03-05T09:28:43.453Z,4.50
2023-03-05T09:32:46.259Z,4.13
2023-03-05T09:36:50.862Z,4.57
2023-03-05T09:41:02.380Z,4.23
2023-03-05T09:45:17.475Z,5.40
2023-03-05T09:49:25.443Z,3.93
2023-03-05T09:53:36.420Z,6.93
2023-03-05T09:57:44.121Z,2.97
2023-03-05T10:01:47.550Z,7.33
2023-03-05T10:06:03.652Z,5.07
2023-03-05T10:10:11.640Z,4.17
2023-03-05T10:14:18.555Z,4.67
2023-03-05T10:18:28.319Z,5.10
2023-03-05T10:22:32.869Z,4.33
2023-03-05T10:26:45.690Z,3.57
2023-03-05T10:31:09.336Z,4.07
2023-03-05T10:35:30.210Z,4.33
2023-03-05T10:39:44.931Z,3.17
2023-03-05T10:43:53.936Z,3.13
2023-03-05T10:48:00.972Z,4.27
2023-03-05T10:52:09.658Z,4.17
2023-03-05T10:56:13.275Z,2.77
2023-03-05T11:00:22.606Z,3.30
2023-03-05T11:04:32.162Z,2.73
2023-03-05T11:08:36.737Z,3.07
2023-03-05T11:12:40.714Z,5.33
2023-03-05T11:16:50.817Z,3.60
2023-03-05T11:21:08.758Z,3.57
2023-03-05T11:25:18.989Z,2.97
2023-03-05T11:29:24.409Z,2.70
2023-03-05T11:33:27.466Z,2.47
2023-03-05T11:37:32.635Z,2.20
2023-03-05T11:41:38.536Z,3.87
2023-03-05T11:45:42.046Z,1.97
2023-03-05T11:49:46.719Z,3.50
2023-03-05T11:53:53.295Z,2.67
2023-03-05T11:58:04.943Z,4.30
2023-03-05T12:02:19.538Z,3.10
2023-03-05T12:06:29.370Z,5.40
2023-03-05T12:10:33.483Z,3.00
2023-03-05T12:14:40.663Z,4.23
2023-03-05T12:18:54.036Z,3.30
2023-03-05T12:22:57.128Z,3.47
2023-03-05T12:27:10.053Z,2.87
2023-03-05T12:31:28.346Z,1.87
2023-03-05T12:35:37.031Z,2.43
2023-03-05T12:39:49.643Z,2.53
2023-03-05T12:44:15.413Z,2.07
2023-03-05T12:48:51.751Z,12.27
2023-03-05T12:52:54.729Z,4.63
2023-03-05T12:56:58.591Z,2.83
2023-03-05T13:01:04.463Z,1.40
2023-03-05T13:05:21.683Z,1.90
2023-03-05T13:09:27.525Z,2.23
2023-03-05T13:13:34.137Z,3.53
2023-03-05T13:17:42.591Z,2.57
2023-03-05T13:21:45.357Z,2.73
2023-03-05T13:25:58.694Z,4.40
2023-03-05T13:30:01.454Z,2.93
2023-03-05T13:34:15.049Z,3.53
2023-03-05T13:38:26.491Z,3.57
2023-03-05T13:42:32.271Z,3.90
2023-03-05T13:46:38.478Z,3.60
2023-03-05T13:50:42.539Z,3.60
2023-03-05T13:54:46.595Z,8.00
2023-03-05T13:58:52.922Z,4.67
2023-03-05T14:02:59.521Z,4.53
2023-03-05T14:07:06.336Z,4.63
2023-03-05T14:11:18.797Z,4.80
2023-03-05T14:15:24.192Z,4.03
2023-03-05T14:19:35.000Z,4.53
2023-03-05T14:23:42.941Z,6.00
2023-03-05T14:27:48.504Z,5.50
2023-03-05T14:31:52.841Z,8.80
2023-03-05T14:35:55.869Z,4.60
2023-03-05T14:40:05.319Z,5.97
2023-03-05T14:44:13.838Z,4.80
2023-03-05T14:48:18.687Z,5.33
2023-03-05T14:52:25.088Z,5.97
2023-03-05T14:56:29.563Z,4.43
2023-03-05T15:00:32.500Z,4.70
2023-03-05T15:04:35.173Z,4.40
2023-03-05T15:08:40.173Z,4.20
2023-03-05T15:12:44.617Z,3.93
2023-03-05T15:16:47.759Z,6.07
2023-03-05T15:20:51.999Z,3.87
2023-03-05T15:24:54.741Z,4.43
2023-03-05T15:28:59.202Z,4.27
2023-03-05T15:33:03.583Z,4.07
2023-03-05T15:37:06.315Z,5.27
2023-03-05T15:41:09.420Z,3.87
2023-03-05T15:45:13.514Z,5.93
2023-03-05T15:49:16.274Z,5.13
2023-03-05T15:53:20.178Z,5.82
2023-03-05T15:57:23.655Z,5.80
2023-03-05T16:01:27.801Z,4.60
2023-03-05T16:05:30.879Z,4.53
2023-03-05T16:09:37.037Z,5.97
2023-03-05T16:13:40.114Z,4.20
2023-03-05T16:17:45.464Z,7.07
2023-03-05T16:21:50.877Z,7.40
2023-03-05T16:25:53.813Z,5.17
2023-03-05T16:29:57.982Z,5.30
2023-03-05T16:34:02.261Z,5.63
2023-03-05T16:38:05.152Z,4.77
2023-03-05T16:42:08.434Z,4.73
2023-03-05T16:46:11.686Z,6.20
2023-03-05T16:50:15.798Z,5.27
2023-03-05T16:54:18.551Z,4.87
2023-03-05T16:58:21.308Z,5.23
2023-03-05T17:02:24.106Z,5.47
2023-03-05T17:06:32.401Z,5.70
2023-03-05T17:10:35.186Z,6.93
2023-03-05T17:14:38.144Z,5.50
2023-03-05T17:18:43.934Z,6.70
2023-03-05T17:22:48.033Z,7.47
2023-03-05T17:26:50.808Z,10.50
2023-03-05T17:30:53.734Z,13.80
2023-03-05T17:34:56.959Z,7.20
2023-03-05T17:39:01.275Z,11.40
2023-03-05T17:43:04.255Z,7.53
2023-03-05T17:47:07.019Z,9.17
2023-03-05T17:51:11.688Z,9.23
2023-03-05T17:55:17.291Z,8.50
2023-03-05T17:59:20.196Z,7.03
2023-03-05T18:03:25.105Z,8.47
2023-03-05T18:07:27.822Z,7.50
2023-03-05T18:11:34.769Z,7.93
2023-03-05T18:15:41.684Z,7.30
2023-03-05T18:19:44.767Z,7.20
2023-03-05T18:23:49.690Z,6.23
2023-03-05T18:27:54.113Z,8.33
2023-03-05T18:31:56.796Z,7.77
2023-03-05T18:35:59.935Z,7.23
2023-03-05T18:40:03.189Z,10.20
2023-03-05T18:44:08.455Z,8.50
2023-03-05T18:48:11.637Z,13.53
2023-03-05T18:52:14.334Z,8.57
2023-03-05T18:56:17.094Z,8.03
2023-03-05T19:00:25.992Z,7.20
2023-03-05T19:04:28.795Z,8.47
2023-03-05T19:08:31.818Z,8.40
2023-03-05T19:12:49.986Z,9.40
2023-03-05T19:16:54.026Z,9.93
2023-03-05T19:20:56.953Z,8.10
2023-03-05T19:24:59.825Z,9.47
2023-03-05T19:29:03.670Z,8.33
2023-03-05T19:33:07.972Z,7.87
2023-03-05T19:37:10.940Z,7.97
2023-03-05T19:41:13.920Z,12.50
2023-03-05T19:45:16.702Z,11.47
2023-03-05T19:49:23.085Z,11.20
2023-03-05T19:53:25.925Z,10.43
2023-03-05T19:57:29.869Z,13.23
2023-03-05T20:01:35.233Z,10.50
2023-03-05T20:05:40.948Z,15.60
2023-03-05T20:09:43.951Z,27.30
2023-03-05T20:13:48.760Z,9.17
2023-03-05T20:17:53.422Z,9.50
2023-03-05T20:21:57.743Z,8.67
2023-03-05T20:26:00.739Z,8.50
2023-03-05T20:30:03.406Z,10.07
2023-03-05T20:34:06.386Z,9.50
2023-03-05T20:38:22.250Z,8.93
2023-03-05T20:42:25.192Z,9.23
2023-03-05T20:46:31.096Z,9.47
2023-03-05T20:50:34.017Z,8.33
2023-03-05T20:54:38.021Z,9.50
2023-03-05T20:58:40.816Z,8.20
2023-03-05T21:02:43.539Z,7.93
2023-03-05T21:06:46.198Z,9.10
2023-03-05T21:10:50.454Z,9.87
2023-03-05T21:14:53.091Z,8.87
2023-03-05T21:18:58.704Z,9.80
2023-03-05T21:23:01.431Z,9.07
2023-03-05T21:27:05.728Z,8.57
2023-03-05T21:31:10.804Z,8.50
2023-03-05T21:35:17.097Z,10.50
2023-03-05T21:39:19.788Z,8.67
2023-03-05T21:43:24.992Z,10.00
2023-03-05T21:47:27.616Z,9.93
2023-03-05T21:52:11.598Z,11.40
2023-03-05T21:56:25.157Z,10.03
2023-03-05T22:00:33.042Z,9.37
2023-03-05T22:04:35.723Z,12.57
2023-03-05T22:08:38.420Z,10.33
2023-03-05T22:13:12.394Z,12.67
2023-03-05T22:17:16.793Z,11.50
2023-03-05T22:21:21.525Z,8.70
2023-03-05T22:25:25.858Z,11.50
2023-03-05T22:29:30.985Z,9.70
2023-03-05T22:33:36.606Z,10.00
2023-03-05T22:37:40.145Z,9.50
2023-03-05T22:41:42.981Z,9.30
2023-03-05T22:45:45.799Z,11.40
2023-03-05T22:49:49.855Z,8.93
2023-03-05T22:53:52.546Z,9.93
2023-03-05T22:57:55.239Z,7.40
2023-03-05T23:01:58.407Z,8.93
2023-03-05T23:06:02.403Z,9.80
2023-03-05T23:10:07.067Z,10.30
2023-03-05T23:14:09.729Z,10.83
2023-03-05T23:18:14.193Z,8.47
2023-03-05T23:22:18.498Z,8.23
2023-03-05T23:26:21.177Z,9.70
2023-03-05T23:30:24.512Z,9.23
2023-03-05T23:34:27.161Z,9.53
2023-03-05T23:38:31.435Z,8.43
2023-03-05T23:42:34.478Z,9.17
2023-03-05T23:46:37.136Z,9.90
2023-03-05T23:50:41.828Z,7.93
2023-03-05T23:54:45.821Z,9.37
2023-03-05T23:58:48.469Z,7.73
